createdAt,value
2018-04-10T00:01:00.700Z,16.50
2018-04-10T00:03:28.190Z,16.50
2018-04-10T00:05:56.423Z,16.40
2018-04-10T00:08:23.889Z,16.40
2018-04-10T00:10:52.045Z,16.60
2018-04-10T00:13:19.516Z,16.60
2018-04-10T00:15:46.985Z,16.60
2018-04-10T00:18:14.455Z,16.50
2018-04-10T00:20:42.687Z,16.50
2018-04-10T00:23:10.162Z,16.40
2018-04-10T00:25:37.623Z,16.40
2018-04-10T00:28:05.076Z,16.50
2018-04-10T00:30:32.549Z,16.50
2018-04-10T00:33:00.027Z,16.50
2018-04-10T00:35:28.238Z,16.30
2018-04-10T00:37:55.734Z,16.20
2018-04-10T00:40:23.215Z,16.10
2018-04-10T00:42:51.437Z,16.00
2018-04-10T00:45:18.900Z,16.00
2018-04-10T00:47:46.381Z,15.90
2018-04-10T00:50:13.847Z,15.90
2018-04-10T00:52:42.093Z,16.00
2018-04-10T00:55:09.676Z,16.00
2018-04-10T00:57:37.220Z,16.00
2018-04-10T01:00:04.789Z,16.10
2018-04-10T01:02:32.358Z,16.00
2018-04-10T01:04:59.833Z,16.00
2018-04-10T01:07:28.041Z,15.90
2018-04-10T01:09:55.523Z,15.90
2018-04-10T01:12:22.991Z,15.90
2018-04-10T01:14:50.456Z,15.80
2018-04-10T01:17:17.918Z,15.70
2018-04-10T01:19:46.138Z,15.60
2018-04-10T01:22:13.619Z,15.60
2018-04-10T01:24:41.070Z,15.60
2018-04-10T01:27:08.547Z,15.50
2018-04-10T01:29:35.989Z,15.50
2018-04-10T01:32:03.455Z,15.40
2018-04-10T01:34:30.924Z,15.40
2018-04-10T01:36:58.393Z,15.50
2018-04-10T01:39:26.620Z,15.30
2018-04-10T01:41:55.017Z,15.30
2018-04-10T01:44:22.574Z,15.30
2018-04-10T01:46:50.021Z,15.20
2018-04-10T01:49:24.489Z,15.20
2018-04-10T01:51:52.745Z,15.20
2018-04-10T01:54:20.210Z,15.20
2018-04-10T01:56:48.447Z,15.20
2018-04-10T01:59:15.896Z,15.20
2018-04-10T02:01:43.475Z,15.10
2018-04-10T02:04:10.924Z,15.10
2018-04-10T02:06:38.387Z,15.10
2018-04-10T02:09:06.074Z,15.00
2018-04-10T02:11:35.017Z,15.00
2018-04-10T02:14:02.486Z,15.00
2018-04-10T02:16:29.939Z,15.00
2018-04-10T02:18:57.416Z,14.90
2018-04-10T02:21:24.904Z,14.80
2018-04-10T02:23:53.115Z,14.80
2018-04-10T02:26:20.580Z,14.80
2018-04-10T02:28:48.054Z,14.90
2018-04-10T02:31:15.526Z,15.00
2018-04-10T02:33:43.003Z,15.10
2018-04-10T02:36:11.225Z,15.00
2018-04-10T02:38:39.342Z,14.90
2018-04-10T02:41:06.790Z,14.90
2018-04-10T02:43:34.251Z,14.80
2018-04-10T02:46:01.728Z,14.80
2018-04-10T02:48:29.967Z,14.80
2018-04-10T02:50:57.488Z,14.80
2018-04-10T02:53:24.954Z,14.70
2018-04-10T02:55:52.423Z,14.70
2018-04-10T02:58:19.900Z,14.60
2018-04-10T03:00:47.349Z,14.60
2018-04-10T03:03:14.861Z,14.50
2018-04-10T03:05:43.770Z,14.40
2018-04-10T03:08:11.242Z,14.40
2018-04-10T03:10:38.678Z,14.40
2018-04-10T03:13:06.140Z,14.40
2018-04-10T03:15:33.617Z,14.40
2018-04-10T03:18:01.076Z,14.40
2018-04-10T03:20:28.531Z,14.40
2018-04-10T03:22:55.989Z,14.30
2018-04-10T03:25:23.464Z,14.40
2018-04-10T03:27:50.931Z,14.50
2018-04-10T03:30:18.407Z,14.60
2018-04-10T03:32:46.785Z,14.40
2018-04-10T03:35:15.087Z,14.50
2018-04-10T03:37:42.518Z,14.50
2018-04-10T03:40:10.759Z,14.50
2018-04-10T03:42:38.321Z,14.50
2018-04-10T03:45:05.887Z,14.50
2018-04-10T03:47:33.395Z,14.60
2018-04-10T03:50:00.853Z,14.50
2018-04-10T03:52:28.300Z,14.40
2018-04-10T03:54:55.765Z,14.40
2018-04-10T03:57:23.235Z,14.40
2018-04-10T03:59:50.694Z,14.40
2018-04-10T04:02:18.169Z,14.40
2018-04-10T04:04:45.719Z,14.40
2018-04-10T04:07:13.214Z,14.40
2018-04-10T04:09:41.463Z,14.40
2018-04-10T04:12:08.909Z,14.40
2018-04-10T04:14:36.497Z,14.40
2018-04-10T04:17:15.983Z,14.40
2018-04-10T04:19:55.473Z,14.30
2018-04-10T04:22:35.713Z,14.10
2018-04-10T04:25:03.180Z,14.10
2018-04-10T04:27:30.642Z,14.10
2018-04-10T04:29:58.124Z,14.00
2018-04-10T04:32:26.380Z,13.90
2018-04-10T04:34:53.930Z,13.90
2018-04-10T04:37:21.413Z,13.90
2018-04-10T04:39:49.661Z,13.90
2018-04-10T04:42:17.126Z,13.80
2018-04-10T04:44:44.638Z,13.90
2018-04-10T04:47:12.243Z,14.00
2018-04-10T04:49:41.236Z,13.80
2018-04-10T04:52:08.781Z,13.90
2018-04-10T04:54:36.246Z,13.80
2018-04-10T04:57:03.697Z,13.70
2018-04-10T04:59:31.148Z,13.60
2018-04-10T05:01:58.696Z,13.70
2018-04-10T05:04:26.160Z,13.70
2018-04-10T05:06:53.637Z,13.70
2018-04-10T05:09:21.112Z,13.70
2018-04-10T05:11:49.347Z,13.90
2018-04-10T05:14:16.796Z,13.90
2018-04-10T05:16:44.272Z,14.00
2018-04-10T05:19:11.756Z,13.90
2018-04-10T05:21:39.986Z,13.70
2018-04-10T05:24:07.438Z,13.70
2018-04-10T05:26:34.926Z,13.70
2018-04-10T05:29:02.375Z,13.80
2018-04-10T05:31:29.828Z,13.80
2018-04-10T05:33:57.306Z,13.80
2018-04-10T05:36:25.537Z,13.80
2018-04-10T05:38:52.997Z,13.70
2018-04-10T05:41:20.455Z,13.80
2018-04-10T05:43:47.953Z,13.80
2018-04-10T05:46:15.416Z,13.80
2018-04-10T05:48:43.651Z,13.90
2018-04-10T05:51:11.134Z,13.90
2018-04-10T05:53:38.602Z,13.80
2018-04-10T05:56:06.839Z,13.80
2018-04-10T05:58:34.305Z,13.80
2018-04-10T06:01:01.777Z,13.90
2018-04-10T06:03:29.277Z,13.80
2018-04-10T06:05:56.756Z,13.70
2018-04-10T06:08:24.206Z,13.90
2018-04-10T06:10:51.671Z,13.90
2018-04-10T06:13:19.908Z,13.80
2018-04-10T06:15:47.380Z,13.80
2018-04-10T06:18:15.583Z,13.90
2018-04-10T06:20:43.073Z,13.90
2018-04-10T06:23:10.541Z,13.90
2018-04-10T06:25:38.799Z,13.90
2018-04-10T06:28:06.278Z,13.90
2018-04-10T06:30:33.746Z,13.90
2018-04-10T06:33:01.223Z,13.80
2018-04-10T06:35:28.712Z,13.80
2018-04-10T06:37:56.163Z,13.90
2018-04-10T06:40:23.625Z,13.90
2018-04-10T06:42:51.085Z,13.90
2018-04-10T06:45:18.553Z,14.00
2018-04-10T06:47:46.043Z,14.10
2018-04-10T06:50:13.519Z,14.10
2018-04-10T06:52:41.712Z,14.30
2018-04-10T06:55:09.248Z,14.30
2018-04-10T06:57:36.728Z,14.40
2018-04-10T07:00:04.191Z,14.40
2018-04-10T07:02:31.667Z,14.40
2018-04-10T07:04:59.141Z,14.50
2018-04-10T07:07:27.395Z,14.80
2018-04-10T07:09:54.877Z,14.80
2018-04-10T07:12:23.115Z,15.20
2018-04-10T07:14:50.569Z,15.20
2018-04-10T07:17:18.053Z,15.40
2018-04-10T07:19:45.505Z,15.50
2018-04-10T07:22:12.979Z,15.60
2018-04-10T07:24:41.215Z,16.00
2018-04-10T07:27:08.671Z,16.00
2018-04-10T07:29:36.131Z,16.60
2018-04-10T07:32:03.612Z,16.90
2018-04-10T07:34:31.082Z,16.90
2018-04-10T07:36:59.308Z,17.10
2018-04-10T07:39:26.766Z,17.10
2018-04-10T07:41:54.895Z,17.30
2018-04-10T07:44:23.103Z,17.70
2018-04-10T07:46:50.560Z,17.70
2018-04-10T07:49:18.011Z,17.80
2018-04-10T07:51:45.507Z,17.90
2018-04-10T07:54:12.949Z,18.00
2018-04-10T07:56:40.418Z,17.70
2018-04-10T07:59:07.878Z,17.50
2018-04-10T08:01:35.338Z,17.50
2018-04-10T08:04:02.825Z,17.50
2018-04-10T08:06:31.047Z,17.40
2018-04-10T08:08:58.499Z,17.40
2018-04-10T08:11:25.997Z,17.40
2018-04-10T08:13:54.208Z,17.50
2018-04-10T08:16:21.659Z,17.50
2018-04-10T08:18:49.137Z,17.60
2018-04-10T08:21:16.609Z,17.70
2018-04-10T08:23:44.076Z,17.90
2018-04-10T08:26:11.542Z,17.80
2018-04-10T08:28:39.021Z,17.90
2018-04-10T08:31:07.231Z,18.00
2018-04-10T08:33:34.685Z,18.00
2018-04-10T08:36:02.150Z,18.30
2018-04-10T08:38:29.599Z,18.40
2018-04-10T08:40:57.093Z,18.50
2018-04-10T08:43:24.566Z,18.80
2018-04-10T08:45:52.027Z,18.90
2018-04-10T08:48:20.268Z,19.50
2018-04-10T08:50:47.722Z,19.40
2018-04-10T08:53:15.159Z,19.70
2018-04-10T08:55:42.651Z,20.00
2018-04-10T08:58:10.086Z,20.40
2018-04-10T09:00:37.533Z,20.40
2018-04-10T09:03:04.976Z,20.70
2018-04-10T09:05:32.434Z,20.90
2018-04-10T09:07:59.911Z,21.20
2018-04-10T09:10:27.376Z,21.30
2018-04-10T09:12:54.840Z,21.10
2018-04-10T09:15:22.314Z,21.00
2018-04-10T09:17:49.823Z,21.10
2018-04-10T09:20:17.297Z,21.20
2018-04-10T09:22:45.596Z,21.30
2018-04-10T09:25:13.075Z,21.10
2018-04-10T09:27:41.274Z,20.50
2018-04-10T09:30:08.760Z,20.50
2018-04-10T09:32:36.219Z,20.40
2018-04-10T09:35:03.755Z,20.60
2018-04-10T09:37:31.194Z,20.90
2018-04-10T09:39:58.667Z,21.10
2018-04-10T09:42:26.140Z,21.10
2018-04-10T09:44:53.584Z,21.20
2018-04-10T09:47:21.032Z,21.10
2018-04-10T09:49:48.470Z,21.00
2018-04-10T09:52:16.723Z,21.00
2018-04-10T09:54:44.262Z,21.00
2018-04-10T09:57:11.722Z,21.00
2018-04-10T09:59:39.248Z,20.70
2018-04-10T10:02:06.703Z,20.30
2018-04-10T10:04:34.154Z,20.20
2018-04-10T10:07:01.617Z,20.10
2018-04-10T10:09:29.086Z,20.00
2018-04-10T10:11:56.548Z,20.20
2018-04-10T10:14:25.024Z,20.20
2018-04-10T10:16:52.483Z,20.00
2018-04-10T10:19:19.925Z,19.90
2018-04-10T10:21:47.367Z,19.80
2018-04-10T10:24:14.840Z,19.80
2018-04-10T10:26:42.329Z,19.80
2018-04-10T10:29:09.766Z,19.80
2018-04-10T10:31:37.245Z,19.70
2018-04-10T10:34:04.716Z,19.60
2018-04-10T10:36:32.155Z,19.50
2018-04-10T10:38:59.616Z,19.30
2018-04-10T10:41:27.121Z,19.20
2018-04-10T10:43:54.634Z,19.20
2018-04-10T10:46:22.970Z,19.30
2018-04-10T10:48:50.419Z,19.30
2018-04-10T10:51:17.864Z,19.50
2018-04-10T10:53:45.333Z,19.70
2018-04-10T10:56:12.811Z,19.70
2018-04-10T10:58:40.269Z,19.80
2018-04-10T11:01:07.724Z,19.70
2018-04-10T11:03:35.223Z,19.70
2018-04-10T11:06:02.707Z,19.50
2018-04-10T11:08:30.197Z,19.40
2018-04-10T11:10:57.741Z,19.40
2018-04-10T11:13:25.241Z,19.40
2018-04-10T11:15:52.747Z,19.30
2018-04-10T11:18:20.280Z,19.50
2018-04-10T11:20:48.551Z,19.50
2018-04-10T11:23:16.827Z,19.80
2018-04-10T11:25:45.089Z,19.80
2018-04-10T11:28:12.602Z,19.70
2018-04-10T11:30:40.124Z,20.00
2018-04-10T11:33:08.415Z,20.60
2018-04-10T11:35:36.644Z,21.00
2018-04-10T11:38:04.125Z,21.00
2018-04-10T11:40:31.589Z,21.50
2018-04-10T11:42:59.901Z,22.00
2018-04-10T11:45:27.420Z,21.90
2018-04-10T11:47:55.724Z,23.00
2018-04-10T11:50:23.204Z,23.00
2018-04-10T11:52:50.678Z,23.30
2018-04-10T11:55:18.222Z,23.60
2018-04-10T11:57:45.741Z,24.20
2018-04-10T12:00:13.269Z,24.70
2018-04-10T12:02:40.738Z,24.70
2018-04-10T12:05:08.220Z,24.30
2018-04-10T12:07:35.758Z,24.30
2018-04-10T12:10:04.127Z,25.40
2018-04-10T12:12:31.718Z,25.40
2018-04-10T12:14:59.185Z,26.40
2018-04-10T12:17:26.647Z,26.80
2018-04-10T12:19:54.150Z,26.30
2018-04-10T12:22:22.381Z,26.90
2018-04-10T12:24:49.941Z,26.90
2018-04-10T12:27:17.452Z,26.00
2018-04-10T12:29:44.994Z,25.20
2018-04-10T12:32:12.463Z,24.40
2018-04-10T12:34:39.956Z,24.40
2018-04-10T12:37:07.424Z,24.40
2018-04-10T12:39:34.871Z,24.50
2018-04-10T12:42:02.360Z,24.90
2018-04-10T12:44:29.850Z,25.20
2018-04-10T12:46:57.343Z,25.50
2018-04-10T12:49:24.914Z,26.20
2018-04-10T12:51:52.433Z,26.90
2018-04-10T12:54:20.705Z,26.80
2018-04-10T12:56:48.994Z,26.90
2018-04-10T12:59:17.230Z,27.40
2018-04-10T13:01:44.675Z,27.40
2018-04-10T13:04:12.142Z,27.10
2018-04-10T13:06:39.633Z,26.50
2018-04-10T13:09:07.848Z,27.80
2018-04-10T13:11:35.317Z,27.80
2018-04-10T13:14:02.810Z,27.30
2018-04-10T13:16:30.255Z,27.20
2018-04-10T13:18:57.719Z,26.00
2018-04-10T13:21:25.187Z,25.30
2018-04-10T13:23:53.428Z,26.10
2018-04-10T13:26:20.882Z,26.00
2018-04-10T13:28:48.356Z,27.00
2018-04-10T13:31:15.810Z,26.60
2018-04-10T13:33:43.265Z,26.90
2018-04-10T13:36:10.708Z,26.90
2018-04-10T13:38:38.276Z,26.00
2018-04-10T13:41:05.735Z,25.60
2018-04-10T13:43:33.217Z,25.30
2018-04-10T13:46:00.733Z,25.20
2018-04-10T13:48:28.297Z,25.10
2018-04-10T13:50:55.839Z,24.90
2018-04-10T13:53:23.377Z,24.70
2018-04-10T13:55:50.967Z,24.40
2018-04-10T13:58:18.487Z,24.00
2018-04-10T14:00:45.979Z,24.00
2018-04-10T14:03:13.426Z,23.80
2018-04-10T14:05:40.881Z,23.60
2018-04-10T14:08:08.310Z,23.50
2018-04-10T14:10:36.555Z,23.40
2018-04-10T14:13:04.011Z,23.30
2018-04-10T14:15:31.482Z,23.50
2018-04-10T14:17:59.005Z,23.90
2018-04-10T14:20:26.473Z,23.10
2018-04-10T14:22:53.927Z,23.30
2018-04-10T14:25:21.401Z,23.20
2018-04-10T14:27:48.851Z,23.40
2018-04-10T14:30:16.327Z,23.10
2018-04-10T14:32:43.771Z,22.80
2018-04-10T14:35:11.249Z,22.40
2018-04-10T14:37:38.695Z,22.30
2018-04-10T14:40:06.176Z,22.00
2018-04-10T14:42:34.387Z,21.90
2018-04-10T14:45:01.836Z,21.90
2018-04-10T14:47:29.333Z,21.90
2018-04-10T14:49:56.765Z,21.70
2018-04-10T14:52:24.244Z,21.80
2018-04-10T14:54:51.684Z,21.80
2018-04-10T14:57:19.125Z,21.80
2018-04-10T14:59:46.597Z,21.90
2018-04-10T15:02:14.022Z,21.70
2018-04-10T15:04:41.486Z,21.70
2018-04-10T15:07:08.948Z,21.80
2018-04-10T15:09:36.405Z,21.70
2018-04-10T15:12:03.850Z,21.60
2018-04-10T15:14:31.321Z,21.80
2018-04-10T15:16:58.783Z,21.70
2018-04-10T15:19:27.000Z,21.30
2018-04-10T15:21:55.251Z,21.30
2018-04-10T15:24:22.687Z,21.30
2018-04-10T15:26:50.143Z,21.40
2018-04-10T15:29:18.097Z,21.50
2018-04-10T15:31:45.599Z,21.30
2018-04-10T15:34:13.077Z,21.30
2018-04-10T15:36:41.282Z,21.30
2018-04-10T15:39:08.762Z,21.20
2018-04-10T15:41:36.223Z,21.30
2018-04-10T15:44:03.678Z,21.30
2018-04-10T15:46:31.161Z,21.20
2018-04-10T15:48:58.596Z,21.20
2018-04-10T15:51:26.050Z,21.30
2018-04-10T15:53:53.508Z,21.20
2018-04-10T15:56:20.997Z,21.30
2018-04-10T15:58:48.423Z,21.40
2018-04-10T16:01:15.890Z,21.40
2018-04-10T16:03:43.341Z,21.40
2018-04-10T16:06:10.864Z,21.30
2018-04-10T16:08:38.290Z,21.20
2018-04-10T16:11:06.502Z,21.30
2018-04-10T16:13:33.972Z,21.30
2018-04-10T16:16:01.418Z,21.30
2018-04-10T16:18:28.904Z,21.30
2018-04-10T16:20:56.354Z,21.20
2018-04-10T16:23:23.809Z,21.20
2018-04-10T16:25:51.273Z,21.10
2018-04-10T16:28:18.738Z,21.10
2018-04-10T16:30:46.211Z,21.00
2018-04-10T16:33:14.426Z,21.00
2018-04-10T16:35:41.878Z,21.00
2018-04-10T16:38:09.348Z,21.00
2018-04-10T16:40:36.842Z,20.90
2018-04-10T16:43:04.288Z,21.00
2018-04-10T16:45:31.774Z,21.00
2018-04-10T16:48:00.027Z,20.50
2018-04-10T16:50:27.490Z,20.50
2018-04-10T16:52:54.970Z,20.10
2018-04-10T16:55:22.434Z,19.90
2018-04-10T16:57:50.687Z,19.60
2018-04-10T17:00:18.943Z,19.50
2018-04-10T17:02:46.470Z,19.50
2018-04-10T17:05:13.921Z,19.50
2018-04-10T17:07:41.389Z,19.60
2018-04-10T17:10:08.867Z,19.50
2018-04-10T17:12:36.375Z,19.30
2018-04-10T17:15:03.807Z,18.80
2018-04-10T17:17:32.092Z,18.60
2018-04-10T17:20:00.334Z,18.00
2018-04-10T17:22:27.812Z,17.90
2018-04-10T17:24:55.361Z,17.40
2018-04-10T17:27:22.859Z,17.20
2018-04-10T17:29:51.067Z,17.40
2018-04-10T17:32:18.519Z,17.40
2018-04-10T17:34:45.966Z,17.50
2018-04-10T17:37:13.455Z,17.60
2018-04-10T17:39:40.915Z,17.60
2018-04-10T17:42:08.376Z,17.50
2018-04-10T17:44:35.853Z,17.20
2018-04-10T17:47:04.065Z,16.70
2018-04-10T17:49:32.078Z,16.70
2018-04-10T17:51:59.598Z,16.60
2018-04-10T17:54:30.015Z,16.60
2018-04-10T17:56:57.466Z,16.60
2018-04-10T17:59:24.950Z,16.50
2018-04-10T18:01:52.422Z,16.50
2018-04-10T18:04:19.901Z,16.50
2018-04-10T18:06:48.166Z,16.20
2018-04-10T18:09:15.706Z,16.20
2018-04-10T18:11:43.150Z,16.30
2018-04-10T18:14:10.597Z,16.30
2018-04-10T18:16:38.114Z,16.30
2018-04-10T18:19:06.341Z,16.40
2018-04-10T18:21:33.818Z,16.30
2018-04-10T18:24:01.290Z,16.40
2018-04-10T18:26:29.562Z,16.50
2018-04-10T18:28:57.047Z,16.50
2018-04-10T18:31:25.282Z,16.70
2018-04-10T18:33:52.724Z,16.70
2018-04-10T18:36:20.233Z,16.70
2018-04-10T18:38:48.474Z,16.80
2018-04-10T18:41:15.929Z,16.80
2018-04-10T18:43:43.372Z,16.60
2018-04-10T18:46:10.867Z,16.70
2018-04-10T18:48:39.164Z,16.90
2018-04-10T18:51:06.684Z,16.90
2018-04-10T18:53:34.286Z,16.90
2018-04-10T18:56:01.923Z,17.00
2018-04-10T18:58:29.382Z,16.90
2018-04-10T19:00:57.696Z,16.60
2018-04-10T19:03:25.251Z,16.60
2018-04-10T19:05:52.729Z,16.70
2018-04-10T19:08:20.232Z,16.50
2018-04-10T19:10:48.482Z,16.20
2018-04-10T19:13:15.985Z,16.20
2018-04-10T19:15:43.463Z,16.00
2018-04-10T19:18:10.944Z,16.00
2018-04-10T19:20:38.412Z,15.90
2018-04-10T19:23:05.874Z,16.00
2018-04-10T19:25:33.373Z,16.10
2018-04-10T19:28:00.849Z,16.00
2018-04-10T19:30:28.371Z,16.00
2018-04-10T19:32:56.590Z,16.10
2018-04-10T19:35:24.095Z,16.10
2018-04-10T19:37:52.340Z,15.90
2018-04-10T19:40:19.843Z,15.90
2018-04-10T19:42:48.112Z,15.90
2018-04-10T19:45:16.393Z,16.10
2018-04-10T19:47:44.693Z,16.20
2018-04-10T19:50:12.192Z,16.20
2018-04-10T19:52:39.671Z,16.30
2018-04-10T19:55:07.966Z,16.20
2018-04-10T19:57:35.434Z,16.20
2018-04-10T20:00:02.951Z,16.10
2018-04-10T20:02:32.629Z,16.00
2018-04-10T20:05:00.204Z,16.00
2018-04-10T20:07:27.771Z,16.10
2018-04-10T20:09:56.010Z,16.20
2018-04-10T20:12:23.490Z,16.10
2018-04-10T20:14:50.964Z,15.90
2018-04-10T20:17:18.535Z,15.90
2018-04-10T20:19:46.036Z,16.00
2018-04-10T20:22:13.513Z,16.10
2018-04-10T20:24:40.991Z,16.10
2018-04-10T20:27:08.636Z,16.20
2018-04-10T20:29:36.101Z,16.10
2018-04-10T20:32:03.560Z,16.10
2018-04-10T20:34:31.011Z,16.00
2018-04-10T20:36:58.460Z,15.90
2018-04-10T20:39:25.994Z,15.80
2018-04-10T20:41:53.434Z,15.80
2018-04-10T20:44:20.907Z,15.70
2018-04-10T20:46:48.375Z,15.60
2018-04-10T20:49:15.818Z,15.60
2018-04-10T20:51:43.331Z,15.60
2018-04-10T20:54:10.807Z,15.60
2018-04-10T20:56:38.291Z,15.50
2018-04-10T20:59:05.759Z,15.30
2018-04-10T21:01:33.204Z,15.20
2018-04-10T21:04:00.695Z,15.10
2018-04-10T21:06:28.171Z,15.00
2018-04-10T21:08:55.638Z,15.00
2018-04-10T21:11:23.089Z,14.80
2018-04-10T21:13:50.559Z,14.90
2018-04-10T21:16:18.821Z,14.90
2018-04-10T21:18:46.297Z,14.90
2018-04-10T21:21:14.528Z,14.80
2018-04-10T21:23:41.980Z,14.80
2018-04-10T21:26:09.513Z,14.70
2018-04-10T21:28:36.968Z,14.30
2018-04-10T21:31:04.409Z,14.50
2018-04-10T21:33:32.647Z,14.30
2018-04-10T21:36:00.189Z,14.30
2018-04-10T21:38:27.656Z,14.20
2018-04-10T21:40:55.174Z,14.10
2018-04-10T21:43:28.403Z,14.10
2018-04-10T21:45:55.858Z,14.20
2018-04-10T21:48:23.410Z,14.10
2018-04-10T21:50:51.060Z,14.10
2018-04-10T21:53:18.522Z,14.30
2018-04-10T21:55:45.996Z,14.30
2018-04-10T21:58:13.463Z,14.40
2018-04-10T22:00:41.031Z,14.50
2018-04-10T22:03:08.636Z,14.50
2018-04-10T22:05:36.119Z,14.30
2018-04-10T22:08:03.554Z,14.10
2018-04-10T22:10:31.011Z,13.80
2018-04-10T22:12:58.478Z,13.40
2018-04-10T22:15:25.922Z,13.40
2018-04-10T22:17:53.420Z,13.40
2018-04-10T22:20:20.856Z,13.30
2018-04-10T22:22:48.317Z,13.40
2018-04-10T22:25:15.788Z,13.40
2018-04-10T22:27:43.356Z,13.30
2018-04-10T22:30:10.797Z,13.40
2018-04-10T22:32:40.355Z,13.50
2018-04-10T22:35:07.850Z,13.70
2018-04-10T22:37:35.379Z,13.60
2018-04-10T22:40:02.853Z,13.70
2018-04-10T22:42:30.304Z,13.70
2018-04-10T22:44:57.755Z,13.50
2018-04-10T22:47:25.195Z,13.60
2018-04-10T22:49:52.674Z,13.60
2018-04-10T22:52:20.224Z,13.60
2018-04-10T22:54:47.689Z,13.60
2018-04-10T22:57:15.239Z,13.50
2018-04-10T22:59:42.684Z,13.50
2018-04-10T23:02:10.142Z,13.60
2018-04-10T23:04:37.595Z,13.60
2018-04-10T23:07:05.059Z,13.50
2018-04-10T23:09:32.546Z,13.40
2018-04-10T23:11:59.997Z,13.20
2018-04-10T23:14:27.692Z,13.40
2018-04-10T23:16:55.944Z,13.70
2018-04-10T23:19:23.419Z,13.70
2018-04-10T23:21:50.966Z,13.80
2018-04-10T23:24:18.519Z,13.90
2018-04-10T23:26:45.985Z,13.90
2018-04-10T23:29:13.510Z,13.90
2018-04-10T23:31:41.027Z,13.70
2018-04-10T23:34:08.497Z,13.50
2018-04-10T23:36:36.737Z,13.20
2018-04-10T23:39:04.205Z,13.20
2018-04-10T23:41:32.822Z,13.10
2018-04-10T23:44:00.271Z,13.10
2018-04-10T23:46:28.478Z,13.10
2018-04-10T23:48:55.941Z,13.10
2018-04-10T23:51:23.403Z,13.20
2018-04-10T23:53:50.880Z,13.40
2018-04-10T23:56:18.436Z,13.60
2018-04-10T23:58:45.910Z,13.70
